createdAt,value
2022-08-11T00:02:15.296Z,47.30
2022-08-11T00:07:14.409Z,47.70
2022-08-11T00:12:14.585Z,48.22
2022-08-11T00:17:14.491Z,48.48
2022-08-11T00:22:14.420Z,48.63
2022-08-11T00:27:14.475Z,48.76
2022-08-11T00:32:14.494Z,49.10
2022-08-11T00:37:14.532Z,49.58
2022-08-11T00:42:14.501Z,49.96
2022-08-11T00:47:14.515Z,50.08
2022-08-11T00:52:14.426Z,50.60
2022-08-11T00:57:36.336Z,50.87
2022-08-11T01:02:16.448Z,50.94
2022-08-11T01:07:16.474Z,50.96
2022-08-11T01:12:18.443Z,50.71
2022-08-11T01:17:18.486Z,50.52
2022-08-11T01:22:18.532Z,49.69
2022-08-11T01:27:20.014Z,48.83
2022-08-11T01:32:20.650Z,48.42
2022-08-11T01:37:20.472Z,47.84
2022-08-11T01:42:49.178Z,47.37
2022-08-11T01:47:53.578Z,46.90
2022-08-11T01:52:53.875Z,46.35
2022-08-11T01:57:53.510Z,45.85
2022-08-11T02:02:53.807Z,45.41
2022-08-11T02:07:53.579Z,44.93
2022-08-11T02:12:55.581Z,44.62
2022-08-11T02:17:56.480Z,44.39
2022-08-11T02:23:58.739Z,44.08
2022-08-11T02:28:16.475Z,43.79
2022-08-11T02:33:27.489Z,43.76
2022-08-11T02:38:27.587Z,43.57
2022-08-11T02:43:27.571Z,43.44
2022-08-11T02:48:45.815Z,43.56
2022-08-11T02:53:48.877Z,43.56
2022-08-11T02:58:49.631Z,43.80
2022-08-11T03:03:50.755Z,44.03
2022-08-11T03:08:51.994Z,44.32
2022-08-11T03:14:09.842Z,44.50
2022-08-11T03:19:09.531Z,44.63
2022-08-11T03:24:09.589Z,44.72
2022-08-11T03:29:09.616Z,44.81
2022-08-11T03:34:10.853Z,45.03
2022-08-11T03:39:10.667Z,45.55
2022-08-11T03:44:10.719Z,46.35
2022-08-11T03:49:10.682Z,47.08
2022-08-11T03:54:10.617Z,47.59
2022-08-11T03:59:10.637Z,48.17
2022-08-11T04:04:10.565Z,48.70
2022-08-11T04:09:10.667Z,49.30
2022-08-11T04:14:44.412Z,49.68
2022-08-11T04:19:44.722Z,50.74
2022-08-11T04:24:49.744Z,50.97
2022-08-11T04:30:03.913Z,51.42
2022-08-11T04:34:48.692Z,51.72
2022-08-11T04:39:49.402Z,52.19
2022-08-11T04:44:49.702Z,52.52
2022-08-11T04:50:07.578Z,53.11
2022-08-11T04:55:25.953Z,53.38
2022-08-11T05:00:43.878Z,53.65
2022-08-11T05:05:54.725Z,53.86
2022-08-11T05:10:45.660Z,53.81
2022-08-11T05:16:04.145Z,53.77
2022-08-11T05:21:21.999Z,53.98
2022-08-11T05:26:47.502Z,54.10
2022-08-11T05:32:00.067Z,54.20
2022-08-11T05:37:23.853Z,54.35
2022-08-11T05:42:20.860Z,54.12
2022-08-11T05:47:39.991Z,54.15
2022-08-11T05:52:58.110Z,54.02
2022-08-11T05:57:59.714Z,53.90
2022-08-11T06:03:00.737Z,53.51
2022-08-11T06:08:00.783Z,53.06
2022-08-11T06:13:01.077Z,52.26
2022-08-11T06:18:02.362Z,50.65
2022-08-11T06:23:03.540Z,49.12
2022-08-11T06:28:03.745Z,46.31
2022-08-11T06:33:03.800Z,43.71
2022-08-11T06:38:03.787Z,40.87
2022-08-11T06:43:03.731Z,37.88
2022-08-11T06:48:05.639Z,32.38
2022-08-11T06:53:05.732Z,29.07
2022-08-11T06:58:24.002Z,25.54
2022-08-11T07:03:23.695Z,23.57
2022-08-11T07:08:42.106Z,20.19
2022-08-11T07:14:00.239Z,18.17
2022-08-11T07:19:17.974Z,17.97
2022-08-11T07:25:01.635Z,17.43
2022-08-11T07:29:38.907Z,16.93
2022-08-11T07:34:38.800Z,15.46
2022-08-11T07:39:38.802Z,14.70
2022-08-11T07:44:59.273Z,14.40
2022-08-11T07:50:16.956Z,14.05
2022-08-11T07:55:16.873Z,13.71
2022-08-11T08:00:34.900Z,13.10
2022-08-11T08:05:53.088Z,12.58
2022-08-11T08:11:11.043Z,12.36
2022-08-11T08:16:29.328Z,12.70
2022-08-11T08:21:28.801Z,12.73
2022-08-11T08:26:48.347Z,11.85
2022-08-11T08:31:48.780Z,12.02
2022-08-11T08:36:48.859Z,11.83
2022-08-11T08:41:49.684Z,11.82
2022-08-11T08:46:49.830Z,11.17
2022-08-11T08:52:01.216Z,11.01
2022-08-11T08:56:51.863Z,10.36
2022-08-11T09:01:52.013Z,10.84
2022-08-11T09:06:52.501Z,10.58
2022-08-11T09:11:55.864Z,10.52
2022-08-11T09:16:55.908Z,10.63
2022-08-11T09:22:15.370Z,10.51
2022-08-11T09:27:14.927Z,10.38
2022-08-11T09:32:14.867Z,10.30
2022-08-11T09:37:54.318Z,10.45
2022-08-11T09:42:53.188Z,10.32
2022-08-11T09:47:52.961Z,10.08
2022-08-11T09:53:34.675Z,10.30
2022-08-11T09:58:42.761Z,10.02
2022-08-11T10:03:18.868Z,10.23
2022-08-11T10:08:18.936Z,10.43
2022-08-11T10:14:32.181Z,10.53
2022-08-11T10:18:39.201Z,10.68
2022-08-11T10:24:13.703Z,10.44
2022-08-11T10:29:36.732Z,10.82
2022-08-11T10:34:33.944Z,11.17
2022-08-11T10:39:33.982Z,11.57
2022-08-11T10:44:33.998Z,12.25
2022-08-11T10:49:33.935Z,13.20
2022-08-11T10:54:52.259Z,14.01
2022-08-11T10:59:53.802Z,14.74
2022-08-11T11:04:54.004Z,15.71
2022-08-11T11:09:53.921Z,16.60
2022-08-11T11:15:16.144Z,17.72
2022-08-11T11:20:34.489Z,18.13
2022-08-11T11:25:17.345Z,18.51
2022-08-11T11:30:17.251Z,19.97
2022-08-11T11:35:16.947Z,20.71
2022-08-11T11:40:17.005Z,21.78
2022-08-11T11:45:23.429Z,21.58
2022-08-11T11:50:19.717Z,22.27
2022-08-11T11:55:20.023Z,22.83
2022-08-11T12:00:41.663Z,22.92
2022-08-11T12:05:40.425Z,23.41
2022-08-11T12:10:40.047Z,23.75
2022-08-11T12:16:23.769Z,24.42
2022-08-11T12:20:42.067Z,24.31
2022-08-11T12:26:25.411Z,24.23
2022-08-11T12:31:02.094Z,24.65
2022-08-11T12:36:02.078Z,24.83
2022-08-11T12:41:20.325Z,24.76
2022-08-11T12:46:19.995Z,24.82
2022-08-11T12:52:11.213Z,25.14
2022-08-11T12:56:58.462Z,25.41
2022-08-11T13:02:16.006Z,25.43
2022-08-11T13:07:16.115Z,25.30
2022-08-11T13:12:34.385Z,25.30
2022-08-11T13:17:43.656Z,25.09
2022-08-11T13:22:36.043Z,25.10
2022-08-11T13:27:36.072Z,25.01
2022-08-11T13:32:36.136Z,25.06
2022-08-11T13:38:19.229Z,25.17
2022-08-11T13:42:38.170Z,25.13
2022-08-11T13:47:39.539Z,25.53
2022-08-11T13:52:40.179Z,25.07
2022-08-11T13:58:08.205Z,24.85
2022-08-11T14:02:42.266Z,25.09
2022-08-11T14:07:42.194Z,24.91
2022-08-11T14:13:00.471Z,24.94
2022-08-11T14:18:02.727Z,25.11
2022-08-11T14:23:03.101Z,24.91
2022-08-11T14:28:41.999Z,25.09
2022-08-11T14:33:17.194Z,25.04
2022-08-11T14:38:09.968Z,24.90
2022-08-11T14:44:12.748Z,25.18
2022-08-11T14:48:30.211Z,25.07
2022-08-11T14:53:30.150Z,25.29
2022-08-11T14:58:33.337Z,25.43
2022-08-11T15:03:33.638Z,25.84
2022-08-11T15:08:51.395Z,25.88
2022-08-11T15:13:51.319Z,26.05
2022-08-11T15:18:51.223Z,26.51
2022-08-11T15:24:09.533Z,25.92
2022-08-11T15:29:27.525Z,25.94
2022-08-11T15:34:45.483Z,26.37
2022-08-11T15:39:47.864Z,26.38
2022-08-11T15:45:06.698Z,26.46
2022-08-11T15:50:12.617Z,26.42
2022-08-11T15:55:08.792Z,26.35
2022-08-11T16:00:27.509Z,26.72
2022-08-11T16:05:46.413Z,26.57
2022-08-11T16:10:29.434Z,26.37
2022-08-11T16:15:49.455Z,26.73
2022-08-11T16:20:49.286Z,26.91
2022-08-11T16:27:05.617Z,26.71
2022-08-11T16:30:51.256Z,26.94
2022-08-11T16:36:09.547Z,27.00
2022-08-11T16:41:11.712Z,27.31
2022-08-11T16:46:30.554Z,26.94
2022-08-11T16:51:30.290Z,27.16
2022-08-11T16:56:30.312Z,27.57
2022-08-11T17:01:30.216Z,27.56
2022-08-11T17:06:48.622Z,27.72
2022-08-11T17:12:06.610Z,27.34
2022-08-11T17:17:06.257Z,27.57
2022-08-11T17:22:24.503Z,27.96
2022-08-11T17:27:24.287Z,27.95
2022-08-11T17:32:56.686Z,28.06
2022-08-11T17:37:44.325Z,28.38
2022-08-11T17:43:02.676Z,28.52
2022-08-11T17:48:20.739Z,28.88
2022-08-11T17:53:38.301Z,28.98
2022-08-11T17:58:56.580Z,29.13
2022-08-11T18:03:58.544Z,29.44
2022-08-11T18:09:16.810Z,29.44
2022-08-11T18:14:34.566Z,29.71
2022-08-11T18:19:52.720Z,30.01
2022-08-11T18:25:10.727Z,30.42
2022-08-11T18:30:28.644Z,30.85
2022-08-11T18:35:46.863Z,31.11
2022-08-11T18:41:04.820Z,31.40
2022-08-11T18:46:22.774Z,31.64
2022-08-11T18:51:40.768Z,31.96
2022-08-11T18:56:58.610Z,32.20
2022-08-11T19:02:16.723Z,32.48
2022-08-11T19:07:34.736Z,32.68
2022-08-11T19:12:52.724Z,32.94
2022-08-11T19:18:10.689Z,33.28
2022-08-11T19:23:28.752Z,33.39
2022-08-11T19:28:46.698Z,33.52
2022-08-11T19:34:10.705Z,33.72
2022-08-11T19:39:24.759Z,34.00
2022-08-11T19:44:42.773Z,34.14
2022-08-11T19:50:00.637Z,34.26
2022-08-11T19:55:18.973Z,34.50
2022-08-11T20:00:36.849Z,34.59
2022-08-11T20:05:59.433Z,34.78
2022-08-11T20:11:14.782Z,35.00
2022-08-11T20:16:32.740Z,35.00
2022-08-11T20:21:50.382Z,35.17
2022-08-11T20:27:18.554Z,35.33
2022-08-11T20:32:28.948Z,35.32
2022-08-11T20:37:50.968Z,35.55
2022-08-11T20:43:06.859Z,35.74
2022-08-11T20:48:26.865Z,35.83
2022-08-11T20:53:44.932Z,36.08
2022-08-11T20:59:21.863Z,36.13
2022-08-11T21:04:22.904Z,36.41
2022-08-11T21:09:58.598Z,36.41
2022-08-11T21:15:04.900Z,36.74
2022-08-11T21:20:22.941Z,36.87
2022-08-11T21:25:40.974Z,36.99
2022-08-11T21:30:58.993Z,37.05
2022-08-11T21:36:16.822Z,37.40
2022-08-11T21:41:34.903Z,37.70
2022-08-11T21:46:52.665Z,37.84
2022-08-11T21:52:10.689Z,38.22
2022-08-11T21:57:28.790Z,38.55
2022-08-11T22:02:50.936Z,38.74
2022-08-11T22:08:08.816Z,39.03
2022-08-11T22:13:26.807Z,39.23
2022-08-11T22:18:44.830Z,39.28
2022-08-11T22:24:02.804Z,39.38
2022-08-11T22:29:20.961Z,39.33
2022-08-11T22:34:51.797Z,39.45
2022-08-11T22:40:03.051Z,39.33
2022-08-11T22:45:20.570Z,39.35
2022-08-11T22:50:38.894Z,39.35
2022-08-11T22:55:56.919Z,39.51
2022-08-11T23:01:15.201Z,39.66
2022-08-11T23:06:33.843Z,39.83
2022-08-11T23:12:07.017Z,39.95
2022-08-11T23:17:12.002Z,40.24
2022-08-11T23:22:39.514Z,40.59
2022-08-11T23:27:49.921Z,41.08
2022-08-11T23:33:07.898Z,41.26
2022-08-11T23:38:26.001Z,41.34
2022-08-11T23:43:43.695Z,41.33
2022-08-11T23:49:02.035Z,41.34
2022-08-11T23:54:19.938Z,41.54
2022-08-11T23:59:37.976Z,41.76
